sensor_id;sensor_type;location;lat;lon;timestamp;pressure;altitude;pressure_sealevel;temperature;humidity
74893;BME280;63446;56.272;43.922;2023-05-10T00:01:46;101733.81;;;6.75;62.02
74893;BME280;63446;56.272;43.922;2023-05-10T00:04:12;101738.03;;;6.76;62.18
74893;BME280;63446;56.272;43.922;2023-05-10T00:06:38;101731.97;;;6.75;62.30
74893;BME280;63446;56.272;43.922;2023-05-10T00:09:04;101742.50;;;6.75;62.22
74893;BME280;63446;56.272;43.922;2023-05-10T00:11:30;101733.81;;;6.75;62.16
74893;BME280;63446;56.272;43.922;2023-05-10T00:13:56;101731.19;;;6.75;62.30
74893;BME280;63446;56.272;43.922;2023-05-10T00:16:22;101729.56;;;6.74;62.33
74893;BME280;63446;56.272;43.922;2023-05-10T00:18:48;101720.66;;;6.75;62.35
74893;BME280;63446;56.272;43.922;2023-05-10T00:21:14;101729.34;;;6.75;62.57
74893;BME280;63446;56.272;43.922;2023-05-10T00:23:40;101731.56;;;6.78;62.39
74893;BME280;63446;56.272;43.922;2023-05-10T00:26:07;101730.75;;;6.78;62.49
74893;BME280;63446;56.272;43.922;2023-05-10T00:28:32;101733.41;;;6.78;62.50
74893;BME280;63446;56.272;43.922;2023-05-10T00:30:59;101737.84;;;6.77;62.45
74893;BME280;63446;56.272;43.922;2023-05-10T00:33:25;101738.44;;;6.79;62.53
74893;BME280;63446;56.272;43.922;2023-05-10T00:35:51;101739.03;;;6.81;62.50
74893;BME280;63446;56.272;43.922;2023-05-10T00:38:16;101743.06;;;6.84;62.39
74893;BME280;63446;56.272;43.922;2023-05-10T00:40:43;101730.28;;;6.88;62.50
74893;BME280;63446;56.272;43.922;2023-05-10T00:43:17;101730.91;;;6.90;62.52
74893;BME280;63446;56.272;43.922;2023-05-10T00:45:44;101733.13;;;6.93;62.74
74893;BME280;63446;56.272;43.922;2023-05-10T00:48:11;101731.06;;;6.95;62.60
74893;BME280;63446;56.272;43.922;2023-05-10T00:50:37;101737.34;;;6.94;62.46
74893;BME280;63446;56.272;43.922;2023-05-10T00:53:04;101738.56;;;6.91;62.64
74893;BME280;63446;56.272;43.922;2023-05-10T00:55:30;101727.47;;;6.89;62.68
74893;BME280;63446;56.272;43.922;2023-05-10T00:57:56;101729.09;;;6.90;62.79
74893;BME280;63446;56.272;43.922;2023-05-10T01:00:22;101732.09;;;6.94;62.93
74893;BME280;63446;56.272;43.922;2023-05-10T01:02:48;101728.44;;;6.95;62.91
74893;BME280;63446;56.272;43.922;2023-05-10T01:05:15;101721.16;;;6.97;62.89
74893;BME280;63446;56.272;43.922;2023-05-10T01:07:40;101731.47;;;6.98;62.91
74893;BME280;63446;56.272;43.922;2023-05-10T01:10:07;101735.50;;;7.01;62.68
74893;BME280;63446;56.272;43.922;2023-05-10T01:12:38;101731.03;;;7.01;62.77
74893;BME280;63446;56.272;43.922;2023-05-10T01:15:10;101736.69;;;7.05;62.75
74893;BME280;63446;56.272;43.922;2023-05-10T01:17:39;101735.84;;;7.11;62.81
74893;BME280;63446;56.272;43.922;2023-05-10T01:20:07;101734.19;;;7.17;62.73
74893;BME280;63446;56.272;43.922;2023-05-10T01:23:00;101736.97;;;7.22;62.76
74893;BME280;63446;56.272;43.922;2023-05-10T01:34:06;101742.53;;;7.39;62.41
74893;BME280;63446;56.272;43.922;2023-05-10T01:36:52;101738.63;;;7.48;62.39
74893;BME280;63446;56.272;43.922;2023-05-10T01:39:28;101739.97;;;7.57;62.36
74893;BME280;63446;56.272;43.922;2023-05-10T01:44:29;101731.13;;;7.76;62.39
74893;BME280;63446;56.272;43.922;2023-05-10T01:47:20;101731.41;;;7.87;62.23
74893;BME280;63446;56.272;43.922;2023-05-10T01:49:50;101731.72;;;7.97;61.75
74893;BME280;63446;56.272;43.922;2023-05-10T01:52:26;101737.28;;;8.07;61.96
74893;BME280;63446;56.272;43.922;2023-05-10T01:55:01;101727.06;;;8.17;61.84
74893;BME280;63446;56.272;43.922;2023-05-10T01:57:34;101728.16;;;8.28;61.54
74893;BME280;63446;56.272;43.922;2023-05-10T02:00:03;101723.00;;;8.40;61.51
74893;BME280;63446;56.272;43.922;2023-05-10T02:02:45;101725.47;;;8.53;61.46
74893;BME280;63446;56.272;43.922;2023-05-10T02:05:13;101725.31;;;8.66;61.23
74893;BME280;63446;56.272;43.922;2023-05-10T02:07:40;101726.97;;;8.79;60.83
74893;BME280;63446;56.272;43.922;2023-05-10T02:10:09;101723.38;;;8.92;60.46
74893;BME280;63446;56.272;43.922;2023-05-10T02:12:40;101731.69;;;9.07;60.14
74893;BME280;63446;56.272;43.922;2023-05-10T02:15:07;101731.81;;;9.24;60.14
74893;BME280;63446;56.272;43.922;2023-05-10T02:17:37;101726.69;;;9.41;60.04
74893;BME280;63446;56.272;43.922;2023-05-10T02:20:09;101724.41;;;9.56;59.79
74893;BME280;63446;56.272;43.922;2023-05-10T02:22:36;101725.00;;;9.70;59.36
74893;BME280;63446;56.272;43.922;2023-05-10T02:25:05;101726.59;;;9.83;59.33
74893;BME280;63446;56.272;43.922;2023-05-10T02:27:33;101725.34;;;9.97;58.92
74893;BME280;63446;56.272;43.922;2023-05-10T02:30:01;101723.84;;;10.13;58.20
74893;BME280;63446;56.272;43.922;2023-05-10T02:32:29;101725.06;;;10.34;57.73
74893;BME280;63446;56.272;43.922;2023-05-10T02:34:57;101720.78;;;10.56;57.43
74893;BME280;63446;56.272;43.922;2023-05-10T02:37:23;101724.22;;;10.85;57.30
74893;BME280;63446;56.272;43.922;2023-05-10T02:39:52;101722.13;;;11.16;56.87
74893;BME280;63446;56.272;43.922;2023-05-10T02:42:21;101722.22;;;11.55;56.33
74893;BME280;63446;56.272;43.922;2023-05-10T02:44:50;101722.53;;;11.92;55.22
74893;BME280;63446;56.272;43.922;2023-05-10T02:47:18;101719.84;;;12.31;53.89
74893;BME280;63446;56.272;43.922;2023-05-10T02:49:45;101719.75;;;12.69;52.79
74893;BME280;63446;56.272;43.922;2023-05-10T02:52:16;101712.75;;;13.12;52.19
74893;BME280;63446;56.272;43.922;2023-05-10T02:54:46;101716.13;;;14.25;50.54
74893;BME280;63446;56.272;43.922;2023-05-10T02:57:16;101708.66;;;15.00;49.82
74893;BME280;63446;56.272;43.922;2023-05-10T02:59:45;101715.22;;;15.94;48.23
74893;BME280;63446;56.272;43.922;2023-05-10T03:02:14;101702.41;;;16.61;45.98
74893;BME280;63446;56.272;43.922;2023-05-10T03:04:40;101699.69;;;17.11;44.79
74893;BME280;63446;56.272;43.922;2023-05-10T03:07:06;101705.41;;;17.57;43.55
74893;BME280;63446;56.272;43.922;2023-05-10T03:09:33;101705.38;;;17.86;43.21
74893;BME280;63446;56.272;43.922;2023-05-10T03:12:25;101707.47;;;18.13;42.42
74893;BME280;63446;56.272;43.922;2023-05-10T03:15:02;101707.38;;;18.61;40.76
74893;BME280;63446;56.272;43.922;2023-05-10T03:20:22;101705.25;;;19.28;39.01
74893;BME280;63446;56.272;43.922;2023-05-10T03:22:56;101711.78;;;19.41;38.12
74893;BME280;63446;56.272;43.922;2023-05-10T03:25:27;101711.88;;;19.50;37.33
74893;BME280;63446;56.272;43.922;2023-05-10T03:27:54;101708.84;;;19.70;37.13
74893;BME280;63446;56.272;43.922;2023-05-10T03:30:24;101704.56;;;19.83;37.03
74893;BME280;63446;56.272;43.922;2023-05-10T03:32:50;101707.06;;;19.93;37.43
74893;BME280;63446;56.272;43.922;2023-05-10T03:35:17;101707.25;;;19.97;37.44
74893;BME280;63446;56.272;43.922;2023-05-10T03:37:44;101704.19;;;20.04;37.42
74893;BME280;63446;56.272;43.922;2023-05-10T03:40:10;101699.78;;;20.08;37.39
74893;BME280;63446;56.272;43.922;2023-05-10T03:42:38;101708.13;;;20.34;36.96
74893;BME280;63446;56.272;43.922;2023-05-10T03:45:05;101705.13;;;20.49;35.65
74893;BME280;63446;56.272;43.922;2023-05-10T03:47:32;101700.28;;;20.60;34.94
74893;BME280;63446;56.272;43.922;2023-05-10T03:49:58;101702.53;;;20.80;34.19
74893;BME280;63446;56.272;43.922;2023-05-10T03:52:25;101702.31;;;21.21;33.97
74893;BME280;63446;56.272;43.922;2023-05-10T03:54:50;101706.38;;;22.21;33.02
74893;BME280;63446;56.272;43.922;2023-05-10T03:57:16;101704.31;;;22.79;31.97
74893;BME280;63446;56.272;43.922;2023-05-10T03:59:42;101692.38;;;23.23;31.45
74893;BME280;63446;56.272;43.922;2023-05-10T04:02:08;101697.66;;;23.58;30.92
74893;BME280;63446;56.272;43.922;2023-05-10T04:04:35;101689.28;;;23.89;30.23
74893;BME280;63446;56.272;43.922;2023-05-10T04:07:02;101698.41;;;24.68;29.56
74893;BME280;63446;56.272;43.922;2023-05-10T04:09:28;101698.00;;;27.34;27.15
74893;BME280;63446;56.272;43.922;2023-05-10T04:11:54;101693.88;;;28.85;25.88
74893;BME280;63446;56.272;43.922;2023-05-10T04:14:20;101693.44;;;30.69;24.12
74893;BME280;63446;56.272;43.922;2023-05-10T04:16:46;101706.56;;;33.51;21.92
74893;BME280;63446;56.272;43.922;2023-05-10T04:19:12;101699.31;;;35.40;20.54
74893;BME280;63446;56.272;43.922;2023-05-10T04:21:38;101696.78;;;36.83;19.62
74893;BME280;63446;56.272;43.922;2023-05-10T04:24:04;101694.94;;;37.00;19.42
74893;BME280;63446;56.272;43.922;2023-05-10T04:26:30;101686.88;;;36.85;19.00
74893;BME280;63446;56.272;43.922;2023-05-10T04:28:57;101683.16;;;36.72;18.78
74893;BME280;63446;56.272;43.922;2023-05-10T04:31:23;101684.31;;;36.48;18.66
74893;BME280;63446;56.272;43.922;2023-05-10T04:33:49;101680.78;;;36.47;18.74
74893;BME280;63446;56.272;43.922;2023-05-10T04:36:15;101678.00;;;36.20;18.71
74893;BME280;63446;56.272;43.922;2023-05-10T04:38:41;101676.22;;;35.72;18.51
74893;BME280;63446;56.272;43.922;2023-05-10T04:41:09;101679.44;;;35.26;18.69
74893;BME280;63446;56.272;43.922;2023-05-10T04:43:37;101685.84;;;34.56;18.82
74893;BME280;63446;56.272;43.922;2023-05-10T04:46:04;101675.94;;;33.78;18.79
74893;BME280;63446;56.272;43.922;2023-05-10T04:48:30;101678.38;;;33.08;19.11
74893;BME280;63446;56.272;43.922;2023-05-10T04:50:56;101665.72;;;32.39;19.54
74893;BME280;63446;56.272;43.922;2023-05-10T04:53:22;101674.22;;;32.05;19.55
74893;BME280;63446;56.272;43.922;2023-05-10T04:55:48;101666.34;;;31.93;19.78
74893;BME280;63446;56.272;43.922;2023-05-10T04:58:14;101670.06;;;31.60;19.86
74893;BME280;63446;56.272;43.922;2023-05-10T05:00:40;101668.03;;;31.50;19.86
74893;BME280;63446;56.272;43.922;2023-05-10T05:03:06;101665.19;;;31.32;19.92
74893;BME280;63446;56.272;43.922;2023-05-10T05:05:32;101667.31;;;31.08;19.58
74893;BME280;63446;56.272;43.922;2023-05-10T05:07:58;101661.00;;;31.01;19.46
74893;BME280;63446;56.272;43.922;2023-05-10T05:10:24;101656.53;;;31.26;19.11
74893;BME280;63446;56.272;43.922;2023-05-10T05:12:50;101656.44;;;31.64;18.88
74893;BME280;63446;56.272;43.922;2023-05-10T05:15:15;101659.59;;;33.28;17.86
74893;BME280;63446;56.272;43.922;2023-05-10T05:17:43;101660.69;;;34.61;17.01
74893;BME280;63446;56.272;43.922;2023-05-10T05:20:09;101652.09;;;35.53;16.33
74893;BME280;63446;56.272;43.922;2023-05-10T05:22:36;101656.56;;;37.32;15.46
74893;BME280;63446;56.272;43.922;2023-05-10T05:25:02;101657.22;;;39.18;14.84
74893;BME280;63446;56.272;43.922;2023-05-10T05:27:32;101645.66;;;40.19;14.49
74893;BME280;63446;56.272;43.922;2023-05-10T05:29:59;101638.06;;;41.40;13.97
74893;BME280;63446;56.272;43.922;2023-05-10T05:32:26;101641.13;;;43.13;13.35
74893;BME280;63446;56.272;43.922;2023-05-10T05:34:51;101640.31;;;45.12;12.19
74893;BME280;63446;56.272;43.922;2023-05-10T05:37:19;101645.63;;;47.01;11.71
74893;BME280;63446;56.272;43.922;2023-05-10T05:39:45;101629.47;;;48.71;11.38
74893;BME280;63446;56.272;43.922;2023-05-10T05:42:12;101633.59;;;49.88;10.82
74893;BME280;63446;56.272;43.922;2023-05-10T05:44:39;101616.88;;;50.29;10.54
74893;BME280;63446;56.272;43.922;2023-05-10T05:47:05;101616.25;;;50.94;10.38
74893;BME280;63446;56.272;43.922;2023-05-10T05:49:32;101615.81;;;51.45;9.92
74893;BME280;63446;56.272;43.922;2023-05-10T05:52:02;101614.19;;;52.23;9.76
74893;BME280;63446;56.272;43.922;2023-05-10T05:54:30;101620.13;;;52.57;9.50
74893;BME280;63446;56.272;43.922;2023-05-10T05:56:57;101610.00;;;52.48;9.45
74893;BME280;63446;56.272;43.922;2023-05-10T05:59:23;101600.63;;;51.53;9.74
74893;BME280;63446;56.272;43.922;2023-05-10T06:01:50;101591.00;;;49.50;10.19
74893;BME280;63446;56.272;43.922;2023-05-10T06:04:16;101594.38;;;47.15;10.58
74893;BME280;63446;56.272;43.922;2023-05-10T06:06:42;101584.19;;;44.80;11.05
74893;BME280;63446;56.272;43.922;2023-05-10T06:09:09;101580.38;;;42.56;12.19
74893;BME280;63446;56.272;43.922;2023-05-10T06:11:36;101571.63;;;40.45;12.93
74893;BME280;63446;56.272;43.922;2023-05-10T06:14:05;101577.88;;;38.56;13.98
74893;BME280;63446;56.272;43.922;2023-05-10T06:16:34;101584.13;;;36.88;13.89
74893;BME280;63446;56.272;43.922;2023-05-10T06:18:59;101567.66;;;35.15;14.31
74893;BME280;63446;56.272;43.922;2023-05-10T06:21:25;101578.94;;;33.54;15.26
74893;BME280;63446;56.272;43.922;2023-05-10T06:23:51;101567.97;;;32.07;15.96
74893;BME280;63446;56.272;43.922;2023-05-10T06:26:17;101563.75;;;30.78;16.93
74893;BME280;63446;56.272;43.922;2023-05-10T06:28:43;101565.72;;;29.70;17.44
74893;BME280;63446;56.272;43.922;2023-05-10T06:31:09;101563.47;;;28.73;18.54
74893;BME280;63446;56.272;43.922;2023-05-10T06:33:37;101557.66;;;27.89;18.83
74893;BME280;63446;56.272;43.922;2023-05-10T06:36:03;101558.28;;;27.12;19.21
74893;BME280;63446;56.272;43.922;2023-05-10T06:38:29;101551.72;;;26.50;19.45
74893;BME280;63446;56.272;43.922;2023-05-10T06:40:55;101562.66;;;25.97;19.77
74893;BME280;63446;56.272;43.922;2023-05-10T06:43:21;101552.38;;;25.50;19.83
74893;BME280;63446;56.272;43.922;2023-05-10T06:45:48;101553.38;;;25.09;19.95
74893;BME280;63446;56.272;43.922;2023-05-10T06:48:13;101546.34;;;24.71;20.45
74893;BME280;63446;56.272;43.922;2023-05-10T06:50:39;101548.31;;;24.38;20.81
74893;BME280;63446;56.272;43.922;2023-05-10T06:53:05;101553.16;;;24.11;21.21
74893;BME280;63446;56.272;43.922;2023-05-10T06:55:31;101543.34;;;23.85;21.35
74893;BME280;63446;56.272;43.922;2023-05-10T06:57:58;101550.50;;;23.60;21.60
74893;BME280;63446;56.272;43.922;2023-05-10T07:00:24;101549.88;;;23.34;21.66
74893;BME280;63446;56.272;43.922;2023-05-10T07:02:49;101543.81;;;23.07;21.86
74893;BME280;63446;56.272;43.922;2023-05-10T07:05:16;101542.13;;;22.85;22.24
74893;BME280;63446;56.272;43.922;2023-05-10T07:07:43;101540.59;;;22.67;22.48
74893;BME280;63446;56.272;43.922;2023-05-10T07:10:09;101548.13;;;22.53;22.52
74893;BME280;63446;56.272;43.922;2023-05-10T07:12:36;101549.25;;;22.34;22.44
74893;BME280;63446;56.272;43.922;2023-05-10T07:15:01;101556.88;;;22.15;21.95
74893;BME280;63446;56.272;43.922;2023-05-10T07:17:31;101552.72;;;22.00;21.85
74893;BME280;63446;56.272;43.922;2023-05-10T07:19:59;101549.56;;;21.89;21.66
74893;BME280;63446;56.272;43.922;2023-05-10T07:22:26;101558.09;;;21.74;21.58
74893;BME280;63446;56.272;43.922;2023-05-10T07:24:53;101539.53;;;21.64;21.55
74893;BME280;63446;56.272;43.922;2023-05-10T07:27:19;101538.13;;;21.58;21.41
74893;BME280;63446;56.272;43.922;2023-05-10T07:29:45;101534.16;;;21.55;21.74
74893;BME280;63446;56.272;43.922;2023-05-10T07:32:10;101531.63;;;21.59;21.99
74893;BME280;63446;56.272;43.922;2023-05-10T07:34:36;101540.19;;;21.61;22.21
74893;BME280;63446;56.272;43.922;2023-05-10T07:37:02;101529.09;;;21.54;21.91
74893;BME280;63446;56.272;43.922;2023-05-10T07:39:28;101536.38;;;21.53;21.71
74893;BME280;63446;56.272;43.922;2023-05-10T07:41:55;101516.91;;;21.48;21.67
74893;BME280;63446;56.272;43.922;2023-05-10T07:44:21;101517.69;;;21.48;21.58
74893;BME280;63446;56.272;43.922;2023-05-10T07:46:48;101523.91;;;21.57;21.70
74893;BME280;63446;56.272;43.922;2023-05-10T07:49:14;101521.69;;;21.68;21.53
74893;BME280;63446;56.272;43.922;2023-05-10T07:51:40;101523.91;;;21.66;21.86
74893;BME280;63446;56.272;43.922;2023-05-10T07:54:06;101524.84;;;21.61;21.92
74893;BME280;63446;56.272;43.922;2023-05-10T07:56:33;101519.75;;;21.51;22.00
74893;BME280;63446;56.272;43.922;2023-05-10T07:59:02;101516.75;;;21.44;22.35
74893;BME280;63446;56.272;43.922;2023-05-10T08:01:34;101514.00;;;21.27;22.01
74893;BME280;63446;56.272;43.922;2023-05-10T08:04:01;101514.59;;;21.15;22.38
74893;BME280;63446;56.272;43.922;2023-05-10T08:06:29;101515.31;;;20.98;22.44
74893;BME280;63446;56.272;43.922;2023-05-10T08:08:56;101515.41;;;20.76;22.48
74893;BME280;63446;56.272;43.922;2023-05-10T08:11:22;101508.78;;;20.51;22.59
74893;BME280;63446;56.272;43.922;2023-05-10T08:13:49;101508.34;;;20.35;22.68
74893;BME280;63446;56.272;43.922;2023-05-10T08:16:16;101506.16;;;20.14;22.71
74893;BME280;63446;56.272;43.922;2023-05-10T08:18:44;101505.81;;;20.07;22.75
74893;BME280;63446;56.272;43.922;2023-05-10T08:21:10;101503.16;;;19.93;22.74
74893;BME280;63446;56.272;43.922;2023-05-10T08:23:37;101503.66;;;19.95;22.90
74893;BME280;63446;56.272;43.922;2023-05-10T08:26:03;101509.56;;;20.06;23.12
74893;BME280;63446;56.272;43.922;2023-05-10T08:28:29;101516.16;;;20.22;23.72
74893;BME280;63446;56.272;43.922;2023-05-10T08:30:55;101512.75;;;20.31;23.70
74893;BME280;63446;56.272;43.922;2023-05-10T08:33:22;101506.78;;;20.34;23.66
74893;BME280;63446;56.272;43.922;2023-05-10T08:35:48;101499.97;;;20.36;23.94
74893;BME280;63446;56.272;43.922;2023-05-10T08:38:13;101503.16;;;20.38;23.80
74893;BME280;63446;56.272;43.922;2023-05-10T08:40:44;101504.13;;;20.42;23.67
74893;BME280;63446;56.272;43.922;2023-05-10T08:43:11;101494.84;;;20.48;23.59
74893;BME280;63446;56.272;43.922;2023-05-10T08:45:43;101487.81;;;20.53;23.43
74893;BME280;63446;56.272;43.922;2023-05-10T08:48:11;101484.38;;;20.61;23.60
74893;BME280;63446;56.272;43.922;2023-05-10T08:50:39;101485.19;;;20.70;23.04
74893;BME280;63446;56.272;43.922;2023-05-10T08:53:09;101483.81;;;20.81;23.44
74893;BME280;63446;56.272;43.922;2023-05-10T08:55:35;101478.16;;;20.91;23.42
74893;BME280;63446;56.272;43.922;2023-05-10T08:58:03;101477.88;;;21.02;23.44
74893;BME280;63446;56.272;43.922;2023-05-10T09:00:29;101476.28;;;21.01;23.34
74893;BME280;63446;56.272;43.922;2023-05-10T09:02:57;101480.00;;;20.82;23.10
74893;BME280;63446;56.272;43.922;2023-05-10T09:05:23;101472.16;;;20.55;22.95
74893;BME280;63446;56.272;43.922;2023-05-10T09:07:50;101472.13;;;20.23;23.10
74893;BME280;63446;56.272;43.922;2023-05-10T09:10:16;101477.25;;;19.89;23.27
74893;BME280;63446;56.272;43.922;2023-05-10T09:12:43;101467.50;;;19.57;23.25
74893;BME280;63446;56.272;43.922;2023-05-10T09:15:11;101474.00;;;19.28;23.57
74893;BME280;63446;56.272;43.922;2023-05-10T09:17:38;101471.53;;;19.04;23.59
74893;BME280;63446;56.272;43.922;2023-05-10T09:20:06;101461.00;;;18.94;23.83
74893;BME280;63446;56.272;43.922;2023-05-10T09:22:33;101466.56;;;18.97;24.29
74893;BME280;63446;56.272;43.922;2023-05-10T09:25:08;101462.13;;;19.07;24.45
74893;BME280;63446;56.272;43.922;2023-05-10T09:27:35;101462.47;;;19.14;24.46
74893;BME280;63446;56.272;43.922;2023-05-10T09:30:02;101452.94;;;19.21;24.21
74893;BME280;63446;56.272;43.922;2023-05-10T09:32:40;101462.59;;;19.22;23.85
74893;BME280;63446;56.272;43.922;2023-05-10T09:35:14;101449.28;;;19.17;24.13
74893;BME280;63446;56.272;43.922;2023-05-10T09:37:42;101437.78;;;19.17;24.23
74893;BME280;63446;56.272;43.922;2023-05-10T09:40:14;101439.19;;;19.14;24.42
74893;BME280;63446;56.272;43.922;2023-05-10T09:42:42;101439.19;;;19.14;24.31
74893;BME280;63446;56.272;43.922;2023-05-10T09:45:08;101434.63;;;19.15;24.14
74893;BME280;63446;56.272;43.922;2023-05-10T09:47:35;101432.13;;;19.18;24.26
74893;BME280;63446;56.272;43.922;2023-05-10T09:50:02;101425.88;;;19.23;24.45
74893;BME280;63446;56.272;43.922;2023-05-10T09:55:24;101429.34;;;19.23;24.01
74893;BME280;63446;56.272;43.922;2023-05-10T09:57:59;101428.03;;;19.21;23.86
74893;BME280;63446;56.272;43.922;2023-05-10T10:00:27;101426.59;;;19.15;24.16
74893;BME280;63446;56.272;43.922;2023-05-10T10:02:57;101421.22;;;19.15;24.12
74893;BME280;63446;56.272;43.922;2023-05-10T10:05:32;101413.66;;;19.17;24.23
74893;BME280;63446;56.272;43.922;2023-05-10T10:08:02;101414.16;;;19.19;24.15
74893;BME280;63446;56.272;43.922;2023-05-10T10:10:30;101412.41;;;19.14;23.98
74893;BME280;63446;56.272;43.922;2023-05-10T10:12:57;101404.44;;;19.09;23.92
74893;BME280;63446;56.272;43.922;2023-05-10T10:15:23;101396.22;;;19.06;24.30
74893;BME280;63446;56.272;43.922;2023-05-10T10:17:51;101395.31;;;19.10;24.68
74893;BME280;63446;56.272;43.922;2023-05-10T10:20:18;101394.63;;;19.18;24.82
74893;BME280;63446;56.272;43.922;2023-05-10T10:22:44;101398.94;;;19.28;24.75
74893;BME280;63446;56.272;43.922;2023-05-10T10:25:15;101390.50;;;19.35;24.78
74893;BME280;63446;56.272;43.922;2023-05-10T10:36:05;101398.94;;;19.28;24.59
74893;BME280;63446;56.272;43.922;2023-05-10T10:41:33;101383.41;;;19.02;24.49
74893;BME280;63446;56.272;43.922;2023-05-10T10:49:32;101379.00;;;18.84;24.48
74893;BME280;63446;56.272;43.922;2023-05-10T10:52:27;101374.53;;;18.80;24.53
74893;BME280;63446;56.272;43.922;2023-05-10T11:00:26;101378.75;;;18.67;24.67
74893;BME280;63446;56.272;43.922;2023-05-10T11:05:41;101367.53;;;18.37;25.07
74893;BME280;63446;56.272;43.922;2023-05-10T11:08:28;101369.91;;;18.25;25.29
74893;BME280;63446;56.272;43.922;2023-05-10T11:13:33;101371.88;;;18.05;25.68
74893;BME280;63446;56.272;43.922;2023-05-10T11:18:39;101359.06;;;18.02;25.54
74893;BME280;63446;56.272;43.922;2023-05-10T11:21:08;101353.56;;;18.13;25.55
74893;BME280;63446;56.272;43.922;2023-05-10T11:26:07;101342.28;;;18.43;25.47
74893;BME280;63446;56.272;43.922;2023-05-10T11:28:44;101334.84;;;18.54;25.37
74893;BME280;63446;56.272;43.922;2023-05-10T11:31:10;101329.09;;;18.74;25.51
74893;BME280;63446;56.272;43.922;2023-05-10T11:33:52;101340.09;;;18.87;25.25
74893;BME280;63446;56.272;43.922;2023-05-10T11:37:20;101329.97;;;18.97;25.08
74893;BME280;63446;56.272;43.922;2023-05-10T11:39:15;101319.50;;;19.10;24.92
74893;BME280;63446;56.272;43.922;2023-05-10T11:41:41;101321.66;;;19.21;24.95
74893;BME280;63446;56.272;43.922;2023-05-10T11:44:08;101317.16;;;19.31;24.89
74893;BME280;63446;56.272;43.922;2023-05-10T11:46:36;101318.31;;;19.38;24.66
74893;BME280;63446;56.272;43.922;2023-05-10T11:49:02;101317.03;;;19.36;24.88
74893;BME280;63446;56.272;43.922;2023-05-10T11:51:34;101306.06;;;19.23;25.17
74893;BME280;63446;56.272;43.922;2023-05-10T11:54:09;101305.50;;;19.13;25.13
74893;BME280;63446;56.272;43.922;2023-05-10T11:56:39;101301.00;;;18.99;25.26
74893;BME280;63446;56.272;43.922;2023-05-10T11:59:05;101294.88;;;18.85;25.33
74893;BME280;63446;56.272;43.922;2023-05-10T12:01:31;101302.25;;;18.80;25.42
74893;BME280;63446;56.272;43.922;2023-05-10T12:03:58;101306.47;;;18.67;25.47
74893;BME280;63446;56.272;43.922;2023-05-10T12:06:30;101309.19;;;18.53;25.50
74893;BME280;63446;56.272;43.922;2023-05-10T12:08:56;101305.13;;;18.42;25.78
74893;BME280;63446;56.272;43.922;2023-05-10T12:11:27;101301.84;;;18.31;25.73
74893;BME280;63446;56.272;43.922;2023-05-10T12:13:53;101295.31;;;18.23;25.76
74893;BME280;63446;56.272;43.922;2023-05-10T12:16:23;101294.81;;;18.21;25.94
74893;BME280;63446;56.272;43.922;2023-05-10T12:18:50;101286.09;;;18.16;26.05
74893;BME280;63446;56.272;43.922;2023-05-10T12:21:16;101290.84;;;18.19;26.09
74893;BME280;63446;56.272;43.922;2023-05-10T12:23:45;101287.59;;;18.22;26.22
74893;BME280;63446;56.272;43.922;2023-05-10T12:26:11;101286.09;;;18.29;26.12
74893;BME280;63446;56.272;43.922;2023-05-10T12:28:38;101285.59;;;18.41;25.94
74893;BME280;63446;56.272;43.922;2023-05-10T12:31:08;101289.03;;;18.55;25.76
74893;BME280;63446;56.272;43.922;2023-05-10T12:33:38;101279.66;;;18.72;25.72
74893;BME280;63446;56.272;43.922;2023-05-10T12:36:11;101278.69;;;18.90;25.58
74893;BME280;63446;56.272;43.922;2023-05-10T12:38:39;101281.53;;;19.08;25.37
74893;BME280;63446;56.272;43.922;2023-05-10T12:41:07;101275.63;;;19.19;25.29
74893;BME280;63446;56.272;43.922;2023-05-10T12:43:34;101270.19;;;19.33;25.08
74893;BME280;63446;56.272;43.922;2023-05-10T12:48:37;101270.31;;;19.50;25.28
74893;BME280;63446;56.272;43.922;2023-05-10T12:51:04;101269.53;;;19.50;25.20
74893;BME280;63446;56.272;43.922;2023-05-10T12:53:30;101272.50;;;19.48;25.38
74893;BME280;63446;56.272;43.922;2023-05-10T12:55:57;101272.75;;;19.38;25.29
74893;BME280;63446;56.272;43.922;2023-05-10T12:58:22;101272.22;;;19.27;25.28
74893;BME280;63446;56.272;43.922;2023-05-10T13:00:49;101273.22;;;19.18;25.49
74893;BME280;63446;56.272;43.922;2023-05-10T13:03:17;101262.78;;;19.08;25.61
74893;BME280;63446;56.272;43.922;2023-05-10T13:05:43;101269.66;;;19.00;25.91
74893;BME280;63446;56.272;43.922;2023-05-10T13:08:09;101270.06;;;18.93;25.83
74893;BME280;63446;56.272;43.922;2023-05-10T13:10:35;101267.31;;;18.85;25.94
74893;BME280;63446;56.272;43.922;2023-05-10T13:13:01;101257.50;;;18.80;26.12
74893;BME280;63446;56.272;43.922;2023-05-10T13:15:28;101261.06;;;18.75;26.58
74893;BME280;63446;56.272;43.922;2023-05-10T13:17:54;101261.19;;;18.70;26.43
74893;BME280;63446;56.272;43.922;2023-05-10T13:20:20;101256.22;;;18.64;26.42
74893;BME280;63446;56.272;43.922;2023-05-10T13:22:46;101262.19;;;18.61;26.39
74893;BME280;63446;56.272;43.922;2023-05-10T13:25:12;101257.44;;;18.58;26.29
74893;BME280;63446;56.272;43.922;2023-05-10T13:27:39;101258.53;;;18.57;26.12
74893;BME280;63446;56.272;43.922;2023-05-10T13:30:07;101255.66;;;18.53;26.29
74893;BME280;63446;56.272;43.922;2023-05-10T13:32:33;101264.75;;;18.52;26.51
74893;BME280;63446;56.272;43.922;2023-05-10T13:35:00;101264.28;;;18.50;26.38
74893;BME280;63446;56.272;43.922;2023-05-10T13:37:25;101262.97;;;18.47;26.41
74893;BME280;63446;56.272;43.922;2023-05-10T13:39:51;101260.31;;;18.47;26.44